createdAt,value
2023-05-07T00:00:41.257Z,2.13
2023-05-07T00:03:07.943Z,2.30
2023-05-07T00:05:34.528Z,2.25
2023-05-07T00:08:00.883Z,2.38
2023-05-07T00:10:27.423Z,2.67
2023-05-07T00:12:53.813Z,2.33
2023-05-07T00:15:20.627Z,2.17
2023-05-07T00:17:46.989Z,2.17
2023-05-07T00:20:13.663Z,2.22
2023-05-07T00:22:40.157Z,2.28
2023-05-07T00:25:06.753Z,2.22
2023-05-07T00:27:33.320Z,2.35
2023-05-07T00:29:59.641Z,2.53
2023-05-07T00:32:26.044Z,1.77
2023-05-07T00:34:52.433Z,2.58
2023-05-07T00:37:18.778Z,2.20
2023-05-07T00:39:45.160Z,2.42
2023-05-07T00:42:11.544Z,2.50
2023-05-07T00:44:37.934Z,2.30
2023-05-07T00:47:05.895Z,2.08
2023-05-07T00:49:42.250Z,2.70
2023-05-07T00:52:16.663Z,2.63
2023-05-07T00:54:43.671Z,2.67
2023-05-07T00:57:12.191Z,2.38
2023-05-07T00:59:39.187Z,2.78
2023-05-07T01:02:05.596Z,2.55
2023-05-07T01:04:32.082Z,2.30
2023-05-07T01:07:00.702Z,2.72
2023-05-07T01:09:28.873Z,2.22
2023-05-07T01:11:58.201Z,2.47
2023-05-07T01:14:25.495Z,2.60
2023-05-07T01:16:54.844Z,2.33
2023-05-07T01:19:23.657Z,2.58
2023-05-07T01:21:52.050Z,2.50
2023-05-07T01:24:19.964Z,2.03
2023-05-07T01:26:46.561Z,2.40
2023-05-07T01:29:15.612Z,2.38
2023-05-07T01:31:43.813Z,2.63
2023-05-07T01:34:13.342Z,2.65
2023-05-07T01:36:40.867Z,2.50
2023-05-07T01:39:07.718Z,2.70
2023-05-07T01:41:34.649Z,2.65
2023-05-07T01:44:02.318Z,2.40
2023-05-07T01:46:29.529Z,2.17
2023-05-07T01:48:56.077Z,2.50
2023-05-07T01:51:23.275Z,2.28
2023-05-07T01:53:51.720Z,2.50
2023-05-07T01:56:20.030Z,2.40
2023-05-07T01:58:47.326Z,2.30
2023-05-07T02:01:15.282Z,2.72
2023-05-07T02:03:43.175Z,2.28
2023-05-07T02:06:17.215Z,2.50
2023-05-07T02:08:43.799Z,3.03
2023-05-07T02:11:11.524Z,2.35
2023-05-07T02:13:38.020Z,3.15
2023-05-07T02:16:05.107Z,2.60
2023-05-07T02:18:31.605Z,3.35
2023-05-07T02:20:58.403Z,2.75
2023-05-07T02:23:24.869Z,3.20
2023-05-07T02:25:52.029Z,3.00
2023-05-07T02:28:18.451Z,2.83
2023-05-07T02:31:05.181Z,2.78
2023-05-07T02:33:32.322Z,2.40
2023-05-07T02:36:07.013Z,2.80
2023-05-07T02:38:35.223Z,2.78
2023-05-07T02:41:01.737Z,3.00
2023-05-07T02:43:28.315Z,3.10
2023-05-07T02:46:05.620Z,3.00
2023-05-07T02:48:34.307Z,2.95
2023-05-07T02:51:01.411Z,2.90
2023-05-07T02:53:28.144Z,3.08
2023-05-07T02:55:55.391Z,2.60
2023-05-07T02:58:21.740Z,2.63
2023-05-07T03:00:48.186Z,3.20
2023-05-07T03:03:23.369Z,2.70
2023-05-07T03:05:50.080Z,2.75
2023-05-07T03:08:16.442Z,2.83
2023-05-07T03:10:42.805Z,3.17
2023-05-07T03:13:09.412Z,3.50
2023-05-07T03:15:35.953Z,3.83
2023-05-07T03:18:02.468Z,3.08
2023-05-07T03:20:28.942Z,3.65
2023-05-07T03:22:57.042Z,4.50
2023-05-07T03:25:23.427Z,3.40
2023-05-07T03:27:50.012Z,3.67
2023-05-07T03:30:20.117Z,3.90
2023-05-07T03:32:46.645Z,3.42
2023-05-07T03:35:13.212Z,3.75
2023-05-07T03:37:41.079Z,3.60
2023-05-07T03:40:10.469Z,3.88
2023-05-07T03:42:43.747Z,3.20
2023-05-07T03:45:11.152Z,3.67
2023-05-07T03:47:40.663Z,3.80
2023-05-07T03:50:09.035Z,3.58
2023-05-07T03:52:35.645Z,3.65
2023-05-07T03:55:03.318Z,3.40
2023-05-07T03:57:32.166Z,3.40
2023-05-07T03:59:59.395Z,4.13
2023-05-07T04:02:26.292Z,4.32
2023-05-07T04:04:52.946Z,3.80
2023-05-07T04:07:19.413Z,3.75
2023-05-07T04:09:49.654Z,4.23
2023-05-07T04:12:16.265Z,3.30
2023-05-07T04:14:45.654Z,3.58
2023-05-07T04:17:12.610Z,3.72
2023-05-07T04:19:39.011Z,3.80
2023-05-07T04:22:05.354Z,3.50
2023-05-07T04:24:34.848Z,3.97
2023-05-07T04:27:02.579Z,4.43
2023-05-07T04:29:29.590Z,3.58
2023-05-07T04:31:57.289Z,3.20
2023-05-07T04:34:23.702Z,3.40
2023-05-07T04:36:50.689Z,3.17
2023-05-07T04:39:17.085Z,3.70
2023-05-07T04:41:46.258Z,3.97
2023-05-07T04:44:13.183Z,3.67
2023-05-07T04:46:39.595Z,3.30
2023-05-07T04:49:06.637Z,3.80
2023-05-07T04:51:33.565Z,4.00
2023-05-07T04:54:00.254Z,4.70
2023-05-07T04:56:30.696Z,3.60
2023-05-07T04:58:57.799Z,3.55
2023-05-07T05:01:24.644Z,4.20
2023-05-07T05:03:51.128Z,3.88
2023-05-07T05:06:19.070Z,3.83
2023-05-07T05:08:45.368Z,3.65
2023-05-07T05:11:12.392Z,4.10
2023-05-07T05:13:39.205Z,4.63
2023-05-07T05:16:11.866Z,3.92
2023-05-07T05:18:39.056Z,4.22
2023-05-07T05:21:05.971Z,3.45
2023-05-07T05:23:33.363Z,4.28
2023-05-07T05:25:59.929Z,3.53
2023-05-07T05:28:29.669Z,4.30
2023-05-07T05:30:56.562Z,4.00
2023-05-07T05:33:24.123Z,4.68
2023-05-07T05:35:50.875Z,4.05
2023-05-07T05:38:17.478Z,4.93
2023-05-07T05:40:44.286Z,4.95
2023-05-07T05:43:10.747Z,4.22
2023-05-07T05:45:38.174Z,4.40
2023-05-07T05:48:04.703Z,4.43
2023-05-07T05:50:31.494Z,3.65
2023-05-07T05:53:00.440Z,4.60
2023-05-07T05:55:28.392Z,4.10
2023-05-07T05:57:54.769Z,4.25
2023-05-07T06:00:23.422Z,4.55
2023-05-07T06:02:57.677Z,4.15
2023-05-07T06:05:25.400Z,4.00
2023-05-07T06:07:54.087Z,4.47
2023-05-07T06:10:21.078Z,4.20
2023-05-07T06:12:47.570Z,4.47
2023-05-07T06:15:14.266Z,4.53
2023-05-07T06:17:41.838Z,4.45
2023-05-07T06:20:10.034Z,4.80
2023-05-07T06:22:36.817Z,4.72
2023-05-07T06:25:03.918Z,5.38
2023-05-07T06:27:30.411Z,4.88
2023-05-07T06:29:57.365Z,4.00
2023-05-07T06:32:23.893Z,4.13
2023-05-07T06:34:52.042Z,4.57
2023-05-07T06:37:19.060Z,4.72
2023-05-07T06:40:00.031Z,3.97
2023-05-07T06:42:27.555Z,4.30
2023-05-07T06:44:58.453Z,4.60
2023-05-07T06:47:25.402Z,4.05
2023-05-07T06:49:54.473Z,4.50
2023-05-07T06:52:24.123Z,4.30
2023-05-07T06:54:51.350Z,4.13
2023-05-07T06:57:20.430Z,3.70
2023-05-07T06:59:46.787Z,4.05
2023-05-07T07:02:13.178Z,3.92
2023-05-07T07:04:41.009Z,4.82
2023-05-07T07:07:10.225Z,3.63
2023-05-07T07:09:36.897Z,4.13
2023-05-07T07:12:05.195Z,4.18
2023-05-07T07:14:31.821Z,3.67
2023-05-07T07:16:58.582Z,4.60
2023-05-07T07:19:27.201Z,4.20
2023-05-07T07:21:55.402Z,5.15
2023-05-07T07:24:22.270Z,4.82
2023-05-07T07:26:52.513Z,4.50
2023-05-07T07:29:20.682Z,5.15
2023-05-07T07:31:49.903Z,5.10
2023-05-07T07:34:17.749Z,3.70
2023-05-07T07:36:46.521Z,5.32
2023-05-07T07:39:16.854Z,4.50
2023-05-07T07:41:44.295Z,4.55
2023-05-07T07:44:16.068Z,4.53
2023-05-07T07:46:43.880Z,4.30
2023-05-07T07:49:10.408Z,4.40
2023-05-07T07:51:37.214Z,5.10
2023-05-07T07:54:04.023Z,5.00
2023-05-07T07:56:34.587Z,4.80
2023-05-07T07:59:02.226Z,4.80
2023-05-07T08:01:31.329Z,6.20
2023-05-07T08:04:01.416Z,6.43
2023-05-07T08:06:29.897Z,6.03
2023-05-07T08:08:56.383Z,5.70
2023-05-07T08:11:23.387Z,6.20
2023-05-07T08:13:51.257Z,6.22
2023-05-07T08:16:18.198Z,6.32
2023-05-07T08:18:44.650Z,5.60
2023-05-07T08:21:11.642Z,6.40
2023-05-07T08:23:38.306Z,6.15
2023-05-07T08:26:05.523Z,6.20
2023-05-07T08:28:32.486Z,7.10
2023-05-07T08:31:01.350Z,5.47
2023-05-07T08:33:31.941Z,5.78
2023-05-07T08:35:58.466Z,5.72
2023-05-07T08:38:25.280Z,5.05
2023-05-07T08:40:51.820Z,5.53
2023-05-07T08:43:20.508Z,5.60
2023-05-07T08:45:50.188Z,5.43
2023-05-07T08:48:18.711Z,6.15
2023-05-07T08:50:53.116Z,5.13
2023-05-07T08:53:21.515Z,5.35
2023-05-07T08:55:49.776Z,5.45
2023-05-07T08:58:16.410Z,5.22
2023-05-07T09:00:43.533Z,5.35
2023-05-07T09:03:13.397Z,6.00
2023-05-07T09:05:41.731Z,5.78
2023-05-07T09:08:08.996Z,6.30
2023-05-07T09:10:37.211Z,5.22
2023-05-07T09:13:05.398Z,5.90
2023-05-07T09:15:31.963Z,6.25
2023-05-07T09:18:02.381Z,6.00
2023-05-07T09:20:31.658Z,6.80
2023-05-07T09:22:58.502Z,6.78
2023-05-07T09:25:33.326Z,5.93
2023-05-07T09:28:08.054Z,5.80
2023-05-07T09:30:35.508Z,7.05
2023-05-07T09:33:05.075Z,7.32
2023-05-07T09:35:34.025Z,6.20
2023-05-07T09:38:05.778Z,7.30
2023-05-07T09:40:35.027Z,7.00
2023-05-07T09:43:14.034Z,6.45
2023-05-07T09:48:19.249Z,7.45
2023-05-07T09:50:52.333Z,5.95
2023-05-07T09:53:23.554Z,7.03
2023-05-07T09:55:52.564Z,7.20
2023-05-07T09:58:21.646Z,6.57
2023-05-07T10:00:48.995Z,5.90
2023-05-07T10:03:16.147Z,7.43
2023-05-07T10:05:51.417Z,6.47
2023-05-07T10:08:20.825Z,7.32
2023-05-07T10:10:50.002Z,7.55
2023-05-07T10:13:21.212Z,7.32
2023-05-07T10:15:51.218Z,6.80
2023-05-07T10:18:23.382Z,7.30
2023-05-07T10:20:52.980Z,6.88
2023-05-07T10:23:24.231Z,6.88
2023-05-07T10:26:00.452Z,6.75
2023-05-07T10:28:31.600Z,6.40
2023-05-07T10:31:35.787Z,6.70
2023-05-07T10:34:09.597Z,6.70
2023-05-07T10:36:38.391Z,7.60
2023-05-07T10:39:06.947Z,7.15
2023-05-07T10:41:33.847Z,7.35
2023-05-07T10:44:02.983Z,6.32
2023-05-07T10:46:36.120Z,5.95
2023-05-07T10:49:24.525Z,5.97
2023-05-07T10:52:16.709Z,6.38
2023-05-07T10:55:22.121Z,5.68
2023-05-07T10:58:31.201Z,4.57
2023-05-07T11:01:08.557Z,4.40
2023-05-07T11:04:15.368Z,4.13
2023-05-07T11:07:37.403Z,4.43
2023-05-07T11:12:45.412Z,10.80
2023-05-07T11:15:35.266Z,9.88
2023-05-07T11:18:04.824Z,7.25
2023-05-07T11:20:58.708Z,6.45
2023-05-07T11:23:58.082Z,6.63
2023-05-07T11:26:42.499Z,5.85
2023-05-07T11:29:21.821Z,6.70
2023-05-07T11:31:53.294Z,7.50
2023-05-07T11:34:25.545Z,7.07
2023-05-07T11:36:54.289Z,7.72
2023-05-07T11:39:36.949Z,6.32
2023-05-07T11:42:03.899Z,4.20
2023-05-07T11:44:46.925Z,3.30
2023-05-07T11:47:19.504Z,3.13
2023-05-07T11:49:50.465Z,3.33
2023-05-07T11:54:56.826Z,2.90
2023-05-07T11:57:24.729Z,2.90
2023-05-07T11:59:59.137Z,2.70
2023-05-07T12:02:26.737Z,2.83
2023-05-07T12:04:54.289Z,3.15
2023-05-07T12:07:21.185Z,3.28
2023-05-07T12:09:48.439Z,3.28
2023-05-07T12:12:18.350Z,3.20
2023-05-07T12:14:46.140Z,2.65
2023-05-07T12:17:14.262Z,2.28
2023-05-07T12:19:43.518Z,2.60
2023-05-07T12:22:10.684Z,2.67
2023-05-07T12:24:50.651Z,2.85
2023-05-07T12:27:18.169Z,3.27
2023-05-07T12:29:47.700Z,2.60
2023-05-07T12:32:16.109Z,2.97
2023-05-07T12:34:45.488Z,2.72
2023-05-07T12:37:13.654Z,2.50
2023-05-07T12:39:48.664Z,2.85
2023-05-07T12:42:26.481Z,2.92
2023-05-07T12:44:53.198Z,2.85
2023-05-07T12:47:19.645Z,2.75
2023-05-07T12:49:47.053Z,3.13
2023-05-07T12:52:13.910Z,3.45
2023-05-07T12:54:40.344Z,3.00
2023-05-07T12:57:08.754Z,3.20
2023-05-07T12:59:42.372Z,3.22
2023-05-07T13:02:09.844Z,2.88
2023-05-07T13:04:38.006Z,3.40
2023-05-07T13:07:04.388Z,3.28
2023-05-07T13:09:32.167Z,3.25
2023-05-07T13:12:02.157Z,2.92
2023-05-07T13:14:28.501Z,3.28
2023-05-07T13:16:54.850Z,3.08
2023-05-07T13:19:21.535Z,3.22
2023-05-07T13:21:47.874Z,3.03
2023-05-07T13:24:14.184Z,3.50
2023-05-07T13:26:40.494Z,3.13
2023-05-07T13:29:06.778Z,3.80
2023-05-07T13:31:34.741Z,3.97
2023-05-07T13:34:01.128Z,3.30
2023-05-07T13:36:27.744Z,4.18
2023-05-07T13:38:54.047Z,3.47
2023-05-07T13:41:20.997Z,3.40
2023-05-07T13:43:47.306Z,3.38
2023-05-07T13:46:13.977Z,3.47
2023-05-07T13:48:40.579Z,3.40
2023-05-07T13:51:07.521Z,3.20
2023-05-07T13:53:33.830Z,3.53
2023-05-07T13:56:00.421Z,3.63
2023-05-07T13:58:26.692Z,2.80
2023-05-07T14:00:53.040Z,3.22
2023-05-07T14:03:20.630Z,3.10
2023-05-07T14:05:48.937Z,3.33
2023-05-07T14:08:18.484Z,3.40
2023-05-07T14:10:44.904Z,2.75
2023-05-07T14:13:11.621Z,2.92
2023-05-07T14:15:38.466Z,2.83
2023-05-07T14:18:04.994Z,3.15
2023-05-07T14:20:31.974Z,3.05
2023-05-07T14:22:58.357Z,3.22
2023-05-07T14:25:24.745Z,3.20
2023-05-07T14:27:51.989Z,3.80
2023-05-07T14:30:18.292Z,4.07
2023-05-07T14:32:44.706Z,4.07
2023-05-07T14:35:11.401Z,3.63
2023-05-07T14:37:37.956Z,4.10
2023-05-07T14:40:04.621Z,3.65
2023-05-07T14:42:31.263Z,4.10
2023-05-07T14:44:57.579Z,4.25
2023-05-07T14:47:23.920Z,4.18
2023-05-07T14:49:50.306Z,4.20
2023-05-07T14:52:16.640Z,5.05
2023-05-07T14:54:43.011Z,3.97
2023-05-07T14:57:10.938Z,4.38
2023-05-07T14:59:38.649Z,3.92
2023-05-07T15:02:07.365Z,3.85
2023-05-07T15:04:34.195Z,3.60
2023-05-07T15:07:01.060Z,3.40
2023-05-07T15:09:27.480Z,3.55
2023-05-07T15:11:53.774Z,3.33
2023-05-07T15:14:22.541Z,3.67
2023-05-07T15:16:50.144Z,4.03
2023-05-07T15:19:17.626Z,4.13
2023-05-07T15:21:43.961Z,3.75
2023-05-07T15:24:10.627Z,3.90
2023-05-07T15:26:37.010Z,3.47
2023-05-07T15:29:04.146Z,4.00
2023-05-07T15:31:30.813Z,3.90
2023-05-07T15:33:57.388Z,3.53
2023-05-07T15:36:23.736Z,3.33
2023-05-07T15:38:50.136Z,3.40
2023-05-07T15:41:16.443Z,3.30
2023-05-07T15:43:49.056Z,3.17
2023-05-07T15:46:24.369Z,3.97
2023-05-07T15:48:52.294Z,3.70
2023-05-07T15:51:19.220Z,3.88
2023-05-07T15:53:45.527Z,3.67
2023-05-07T15:56:12.019Z,4.38
2023-05-07T15:58:38.379Z,4.13
2023-05-07T16:01:05.267Z,4.28
2023-05-07T16:03:32.071Z,4.03
2023-05-07T16:06:00.665Z,4.15
2023-05-07T16:08:27.323Z,4.15
2023-05-07T16:10:53.903Z,4.43
2023-05-07T16:13:20.849Z,4.43
2023-05-07T16:15:48.129Z,4.30
2023-05-07T16:18:17.461Z,4.57
2023-05-07T16:20:43.824Z,4.18
2023-05-07T16:23:10.450Z,4.63
2023-05-07T16:25:36.749Z,4.50
2023-05-07T16:28:03.137Z,4.07
2023-05-07T16:30:29.470Z,4.25
2023-05-07T16:32:55.906Z,3.88
2023-05-07T16:35:22.354Z,4.57
2023-05-07T16:37:48.691Z,4.35
2023-05-07T16:40:15.154Z,3.78
2023-05-07T16:42:41.626Z,4.13
2023-05-07T16:45:08.769Z,3.75
2023-05-07T16:47:35.119Z,3.63
2023-05-07T16:50:01.740Z,3.75
2023-05-07T16:52:29.702Z,3.00
2023-05-07T16:54:58.302Z,3.08
2023-05-07T16:57:25.463Z,3.42
2023-05-07T16:59:52.722Z,3.80
2023-05-07T17:02:19.658Z,3.65
2023-05-07T17:04:45.948Z,3.80
2023-05-07T17:07:12.421Z,3.75
2023-05-07T17:09:38.878Z,3.45
2023-05-07T17:12:05.685Z,3.90
2023-05-07T17:14:32.067Z,3.50
2023-05-07T17:16:58.470Z,3.60
2023-05-07T17:19:24.800Z,3.72
2023-05-07T17:21:51.089Z,4.55
2023-05-07T17:24:17.528Z,4.75
2023-05-07T17:26:43.851Z,3.58
2023-05-07T17:29:10.249Z,3.10
2023-05-07T17:31:36.683Z,3.55
2023-05-07T17:34:03.163Z,3.35
2023-05-07T17:36:29.463Z,3.15
2023-05-07T17:38:55.841Z,3.40
2023-05-07T17:41:22.624Z,3.35
2023-05-07T17:43:48.962Z,3.45
2023-05-07T17:46:15.368Z,3.35
2023-05-07T17:48:41.755Z,3.90
2023-05-07T17:51:09.516Z,4.03
2023-05-07T17:53:36.062Z,3.78
2023-05-07T17:56:02.412Z,4.00
2023-05-07T17:58:28.799Z,4.20
2023-05-07T18:00:55.424Z,3.88
2023-05-07T18:03:24.266Z,4.30
2023-05-07T18:05:50.945Z,3.95
2023-05-07T18:08:17.239Z,3.78
2023-05-07T18:10:43.573Z,3.78
2023-05-07T18:13:10.047Z,3.65
2023-05-07T18:15:36.398Z,3.85
2023-05-07T18:18:02.857Z,3.55
2023-05-07T18:20:29.224Z,3.92
2023-05-07T18:22:55.699Z,4.72
2023-05-07T18:25:22.172Z,6.40
2023-05-07T18:27:48.469Z,7.05
2023-05-07T18:30:15.136Z,6.20
2023-05-07T18:32:41.620Z,5.13
2023-05-07T18:35:08.428Z,5.80
2023-05-07T18:37:34.748Z,4.32
2023-05-07T18:40:04.388Z,4.05
2023-05-07T18:42:31.627Z,4.22
2023-05-07T18:44:59.164Z,3.47
2023-05-07T18:47:25.504Z,4.45
2023-05-07T18:49:51.989Z,3.92
2023-05-07T18:52:20.993Z,4.78
2023-05-07T18:54:48.019Z,4.07
2023-05-07T18:57:14.369Z,4.05
2023-05-07T18:59:40.669Z,4.68
2023-05-07T19:02:06.989Z,4.43
2023-05-07T19:04:33.344Z,4.20
2023-05-07T19:06:59.664Z,3.67
2023-05-07T19:09:25.968Z,3.03
2023-05-07T19:11:52.427Z,3.65
2023-05-07T19:14:18.724Z,3.60
2023-05-07T19:16:45.167Z,3.67
2023-05-07T19:19:11.469Z,4.07
2023-05-07T19:21:37.849Z,3.70
2023-05-07T19:24:04.353Z,4.13
2023-05-07T19:26:30.748Z,4.30
2023-05-07T19:29:12.206Z,4.45
2023-05-07T19:31:42.610Z,4.30
2023-05-07T19:34:09.054Z,4.50
2023-05-07T19:36:35.366Z,3.90
2023-05-07T19:39:01.740Z,4.82
2023-05-07T19:41:28.637Z,4.78
2023-05-07T19:43:55.261Z,4.82
2023-05-07T19:46:21.960Z,4.97
2023-05-07T19:48:48.631Z,4.70
2023-05-07T19:51:14.971Z,4.30
2023-05-07T19:53:41.294Z,4.40
2023-05-07T19:56:09.569Z,4.55
2023-05-07T19:58:36.776Z,4.60
2023-05-07T20:01:04.332Z,5.45
2023-05-07T20:03:32.368Z,4.70
2023-05-07T20:05:59.274Z,4.72
2023-05-07T20:08:27.432Z,5.40
2023-05-07T20:10:53.807Z,4.07
2023-05-07T20:13:20.274Z,4.30
2023-05-07T20:15:46.619Z,3.83
2023-05-07T20:18:15.032Z,4.22
2023-05-07T20:20:41.758Z,4.22
2023-05-07T20:23:08.067Z,4.78
2023-05-07T20:25:34.403Z,4.15
2023-05-07T20:28:00.790Z,4.68
2023-05-07T20:30:27.669Z,4.28
2023-05-07T20:32:54.046Z,4.25
2023-05-07T20:35:20.432Z,4.43
2023-05-07T20:37:46.934Z,4.70
2023-05-07T20:40:13.775Z,4.20
2023-05-07T20:42:40.291Z,4.18
2023-05-07T20:45:07.779Z,4.60
2023-05-07T20:47:34.095Z,5.07
2023-05-07T20:50:00.737Z,5.68
2023-05-07T20:52:27.087Z,4.63
2023-05-07T20:54:53.605Z,5.97
2023-05-07T20:57:20.062Z,4.93
2023-05-07T20:59:46.424Z,5.05
2023-05-07T21:02:12.764Z,5.60
2023-05-07T21:04:39.179Z,4.80
2023-05-07T21:07:06.159Z,4.80
2023-05-07T21:09:32.738Z,4.55
2023-05-07T21:11:59.338Z,4.57
2023-05-07T21:14:25.692Z,5.90
2023-05-07T21:16:52.084Z,6.18
2023-05-07T21:19:18.549Z,5.85
2023-05-07T21:21:44.845Z,5.90
2023-05-07T21:24:11.435Z,6.10
2023-05-07T21:26:37.844Z,6.75
2023-05-07T21:29:04.586Z,6.28
2023-05-07T21:31:30.931Z,5.65
2023-05-07T21:33:57.429Z,5.88
2023-05-07T21:36:23.712Z,6.35
2023-05-07T21:38:50.197Z,7.05
2023-05-07T21:41:16.922Z,6.85
2023-05-07T21:43:43.228Z,8.00
2023-05-07T21:46:10.271Z,8.52
2023-05-07T21:48:36.768Z,7.65
2023-05-07T21:51:05.314Z,8.35
2023-05-07T21:53:31.917Z,8.50
2023-05-07T21:56:02.719Z,8.88
2023-05-07T21:58:30.700Z,9.73
2023-05-07T22:00:57.981Z,9.07
2023-05-07T22:03:24.468Z,10.30
2023-05-07T22:05:50.898Z,9.77
2023-05-07T22:08:17.226Z,10.82
2023-05-07T22:10:43.886Z,11.73
2023-05-07T22:13:10.273Z,11.73
2023-05-07T22:15:45.428Z,12.50
2023-05-07T22:18:19.974Z,12.27
2023-05-07T22:20:46.312Z,12.88
2023-05-07T22:23:12.628Z,12.38
2023-05-07T22:25:38.933Z,12.35
2023-05-07T22:28:05.801Z,12.73
2023-05-07T22:30:32.182Z,13.25
2023-05-07T22:32:58.518Z,13.82
2023-05-07T22:35:24.977Z,13.55
2023-05-07T22:37:51.293Z,14.00
2023-05-07T22:40:17.935Z,13.20
2023-05-07T22:42:44.329Z,14.88
2023-05-07T22:45:11.250Z,14.05
2023-05-07T22:47:37.654Z,14.40
2023-05-07T22:50:06.100Z,13.43
2023-05-07T22:52:33.845Z,15.00
2023-05-07T22:55:00.453Z,13.75
2023-05-07T22:57:26.820Z,13.15
2023-05-07T22:59:54.399Z,14.43
2023-05-07T23:02:20.867Z,13.90
2023-05-07T23:04:47.184Z,13.93
2023-05-07T23:07:13.500Z,12.95
2023-05-07T23:09:39.930Z,14.20
2023-05-07T23:12:06.317Z,13.35
2023-05-07T23:14:32.658Z,13.98
2023-05-07T23:16:58.994Z,14.23
2023-05-07T23:19:25.486Z,13.95
2023-05-07T23:21:52.145Z,13.43
2023-05-07T23:24:18.454Z,14.27
2023-05-07T23:26:44.757Z,14.38
2023-05-07T23:29:11.168Z,15.25
2023-05-07T23:31:37.793Z,15.05
2023-05-07T23:34:04.206Z,14.25
2023-05-07T23:36:32.482Z,14.57
2023-05-07T23:38:58.901Z,13.75
2023-05-07T23:41:25.656Z,14.50
2023-05-07T23:43:51.936Z,15.13
2023-05-07T23:46:18.440Z,15.45
2023-05-07T23:48:44.895Z,14.70
2023-05-07T23:51:11.413Z,15.23
2023-05-07T23:53:37.742Z,14.88
2023-05-07T23:56:04.284Z,13.35
2023-05-07T23:58:30.640Z,14.65
